Terminal Aerodrome Forecast
Issued by NWS Wilmington, OH

Home | Current Version | Previous Version | Text Only | Print | Product List | Glossary On
Versions: 1 2 3 4 5 6 7 8 9 10 11 12 13 14 15
000
FTUS41 KILN 291700
TAFILN
TAF
KILN 291733Z 2918/3018 18013G20KT P6SM SCT150 BKN250
     FM292000 19016G26KT P6SM BKN150
     FM292300 19012KT P6SM VCSH SCT050 OVC100
     FM300100 22013G19KT P6SM -SHRA OVC040
     FM300600 26013KT P6SM OVC012
     FM301100 29012KT P6SM FEW015
     FM301400 29012G20KT P6SM SCT040
      TEMPO 3014/3016 BKN025=

USA.gov is the U.S. government's official web portal to all federal, state and local government web resources and services.